createdAt,value
2023-03-17T00:02:24.919Z,6.57
2023-03-17T00:05:31.555Z,5.50
2023-03-17T00:08:35.712Z,5.17
2023-03-17T00:11:37.487Z,7.10
2023-03-17T00:14:38.877Z,5.53
2023-03-17T00:17:42.227Z,6.07
2023-03-17T00:20:44.778Z,6.50
2023-03-17T00:23:50.584Z,5.30
2023-03-17T00:26:51.976Z,6.03
2023-03-17T00:29:53.424Z,6.33
2023-03-17T00:32:58.010Z,4.93
2023-03-17T00:35:59.556Z,5.53
2023-03-17T00:39:01.389Z,5.67
2023-03-17T00:42:02.887Z,4.27
2023-03-17T00:45:06.365Z,4.83
2023-03-17T00:48:17.351Z,6.43
2023-03-17T00:51:18.741Z,7.23
2023-03-17T00:54:20.669Z,7.37
2023-03-17T00:57:22.639Z,7.63
2023-03-17T01:00:27.633Z,9.47
2023-03-17T01:03:29.371Z,6.07
2023-03-17T01:06:30.820Z,6.37
2023-03-17T01:09:33.774Z,4.67
2023-03-17T01:12:35.179Z,5.00
2023-03-17T01:15:37.281Z,5.53
2023-03-17T01:18:39.630Z,4.90
2023-03-17T01:21:41.555Z,5.73
2023-03-17T01:24:43.157Z,4.37
2023-03-17T01:27:46.396Z,8.70
2023-03-17T01:30:47.934Z,5.50
2023-03-17T01:33:49.321Z,8.03
2023-03-17T01:36:50.872Z,5.07
2023-03-17T01:39:52.582Z,6.97
2023-03-17T01:43:02.152Z,6.67
2023-03-17T01:46:14.701Z,5.83
2023-03-17T01:49:19.303Z,5.23
2023-03-17T01:52:22.835Z,4.67
2023-03-17T01:55:24.737Z,5.10
2023-03-17T01:58:26.570Z,5.80
2023-03-17T02:01:33.565Z,4.93
2023-03-17T02:04:35.333Z,5.20
2023-03-17T02:07:37.562Z,6.00
2023-03-17T02:10:40.933Z,5.60
2023-03-17T02:13:44.558Z,5.03
2023-03-17T02:16:48.532Z,6.77
2023-03-17T02:19:51.753Z,4.57
2023-03-17T02:22:54.826Z,5.27
2023-03-17T02:25:56.272Z,4.87
2023-03-17T02:28:58.016Z,5.47
2023-03-17T02:32:00.399Z,5.37
2023-03-17T02:35:02.414Z,6.10
2023-03-17T02:38:04.352Z,7.47
2023-03-17T02:41:07.140Z,5.53
2023-03-17T02:44:09.695Z,4.13
2023-03-17T02:47:12.305Z,4.67
2023-03-17T02:50:22.087Z,6.03
2023-03-17T02:53:23.483Z,5.43
2023-03-17T02:56:25.204Z,6.93
2023-03-17T02:59:27.583Z,6.73
2023-03-17T03:02:29.023Z,4.00
2023-03-17T03:05:30.469Z,5.00
2023-03-17T03:08:32.024Z,4.70
2023-03-17T03:11:33.423Z,6.60
2023-03-17T03:14:34.822Z,5.37
2023-03-17T03:17:36.292Z,3.80
2023-03-17T03:20:38.245Z,3.50
2023-03-17T03:23:39.702Z,4.37
2023-03-17T03:26:41.316Z,4.50
2023-03-17T03:29:42.781Z,5.13
2023-03-17T03:32:44.200Z,4.43
2023-03-17T03:35:45.830Z,6.57
2023-03-17T03:38:47.245Z,3.93
2023-03-17T03:41:48.696Z,4.87
2023-03-17T03:44:50.075Z,3.67
2023-03-17T03:47:51.585Z,4.50
2023-03-17T03:51:01.352Z,4.93
2023-03-17T03:54:02.832Z,4.03
2023-03-17T03:57:04.624Z,4.03
2023-03-17T04:00:07.426Z,4.97
2023-03-17T04:03:14.135Z,5.93
2023-03-17T04:06:16.233Z,4.27
2023-03-17T04:09:17.655Z,5.93
2023-03-17T04:12:19.144Z,6.10
2023-03-17T04:15:21.052Z,4.80
2023-03-17T04:18:22.543Z,5.17
2023-03-17T04:21:23.943Z,4.37
2023-03-17T04:24:25.594Z,7.73
2023-03-17T04:27:27.029Z,4.00
2023-03-17T04:30:29.015Z,4.57
2023-03-17T04:33:30.580Z,4.87
2023-03-17T04:36:32.706Z,4.67
2023-03-17T04:39:34.129Z,4.20
2023-03-17T04:42:36.669Z,3.87
2023-03-17T04:45:38.670Z,3.90
2023-03-17T04:48:40.271Z,4.33
2023-03-17T04:51:41.955Z,3.50
2023-03-17T04:54:43.564Z,4.47
2023-03-17T04:57:44.975Z,4.17
2023-03-17T05:00:46.799Z,4.83
2023-03-17T05:03:48.981Z,3.87
2023-03-17T05:06:51.780Z,4.07
2023-03-17T05:09:53.250Z,6.80
2023-03-17T05:12:54.646Z,4.27
2023-03-17T05:15:56.898Z,4.03
2023-03-17T05:18:58.467Z,5.13
2023-03-17T05:21:59.892Z,4.30
2023-03-17T05:25:01.322Z,4.57
2023-03-17T05:28:03.151Z,6.63
2023-03-17T05:31:05.296Z,4.17
2023-03-17T05:34:06.778Z,4.60
2023-03-17T05:37:08.607Z,4.07
2023-03-17T05:40:12.291Z,7.93
2023-03-17T05:43:13.942Z,6.07
2023-03-17T05:46:15.470Z,5.20
2023-03-17T05:49:16.933Z,7.57
2023-03-17T05:52:18.394Z,6.10
2023-03-17T05:55:20.481Z,4.40
2023-03-17T05:58:22.024Z,4.27
2023-03-17T06:01:23.732Z,4.30
2023-03-17T06:04:26.289Z,3.60
2023-03-17T06:07:33.093Z,4.23
2023-03-17T06:10:39.691Z,4.30
2023-03-17T06:13:41.479Z,4.53
2023-03-17T06:16:43.088Z,5.97
2023-03-17T06:19:44.482Z,4.87
2023-03-17T06:23:02.365Z,3.67
2023-03-17T06:26:05.725Z,5.20
2023-03-17T06:29:11.618Z,4.53
2023-03-17T06:32:20.366Z,4.67
2023-03-17T06:35:23.248Z,4.27
2023-03-17T06:38:24.692Z,3.90
2023-03-17T06:41:26.490Z,4.70
2023-03-17T06:44:27.885Z,4.97
2023-03-17T06:47:29.473Z,5.73
2023-03-17T06:50:30.933Z,4.40
2023-03-17T06:53:32.390Z,4.33
2023-03-17T06:56:33.867Z,4.70
2023-03-17T06:59:35.718Z,5.20
2023-03-17T07:02:37.141Z,4.77
2023-03-17T07:05:39.323Z,5.53
2023-03-17T07:08:41.447Z,4.73
2023-03-17T07:11:42.876Z,4.90
2023-03-17T07:14:44.320Z,5.63
2023-03-17T07:17:46.899Z,7.00
2023-03-17T07:20:48.320Z,7.33
2023-03-17T07:23:49.711Z,3.70
2023-03-17T07:26:51.392Z,5.30
2023-03-17T07:29:53.333Z,7.37
2023-03-17T07:32:55.236Z,7.80
2023-03-17T07:35:56.823Z,7.87
2023-03-17T07:38:58.359Z,4.50
2023-03-17T07:41:59.768Z,8.83
2023-03-17T07:45:01.380Z,5.20
2023-03-17T07:48:05.045Z,4.80
2023-03-17T07:51:07.309Z,5.07
2023-03-17T07:54:15.084Z,4.37
2023-03-17T07:57:16.741Z,5.50
2023-03-17T08:00:19.506Z,6.13
2023-03-17T08:03:20.999Z,6.47
2023-03-17T08:06:25.206Z,5.47
2023-03-17T08:09:27.018Z,6.10
2023-03-17T08:12:29.020Z,5.47
2023-03-17T08:15:31.185Z,5.00
2023-03-17T08:18:32.594Z,5.00
2023-03-17T08:21:34.005Z,4.20
2023-03-17T08:24:36.192Z,4.50
2023-03-17T08:27:37.658Z,6.13
2023-03-17T08:30:39.466Z,6.47
2023-03-17T08:33:42.440Z,7.70
2023-03-17T08:36:44.101Z,8.30
2023-03-17T08:39:45.594Z,6.90
2023-03-17T08:42:49.078Z,8.10
2023-03-17T08:45:50.611Z,8.77
2023-03-17T08:48:54.946Z,9.17
2023-03-17T08:51:56.411Z,4.87
2023-03-17T08:54:58.117Z,6.40
2023-03-17T08:57:59.513Z,5.30
2023-03-17T09:01:02.810Z,4.47
2023-03-17T09:04:04.298Z,4.73
2023-03-17T09:07:08.370Z,5.17
2023-03-17T09:10:12.366Z,8.57
2023-03-17T09:13:16.208Z,3.93
2023-03-17T09:16:18.635Z,5.53
2023-03-17T09:19:20.232Z,4.30
2023-03-17T09:22:22.012Z,5.67
2023-03-17T09:25:23.668Z,4.57
2023-03-17T09:28:25.269Z,5.90
2023-03-17T09:31:27.124Z,4.53
2023-03-17T09:34:28.547Z,5.67
2023-03-17T09:37:30.211Z,4.33
2023-03-17T09:40:35.882Z,5.50
2023-03-17T09:44:05.697Z,7.30
2023-03-17T09:47:28.543Z,5.10
2023-03-17T09:50:53.924Z,5.27
2023-03-17T09:54:15.270Z,4.87
2023-03-17T09:57:24.689Z,5.73
2023-03-17T10:00:29.236Z,5.50
2023-03-17T10:03:31.284Z,5.30
2023-03-17T10:06:38.743Z,5.63
2023-03-17T10:10:14.756Z,4.13
2023-03-17T10:13:28.296Z,4.67
2023-03-17T10:16:40.490Z,5.17
2023-03-17T10:19:45.280Z,4.37
2023-03-17T10:22:50.226Z,7.73
2023-03-17T10:25:52.655Z,5.23
2023-03-17T10:28:54.809Z,5.67
2023-03-17T10:31:58.569Z,4.53
2023-03-17T10:35:01.273Z,4.63
2023-03-17T10:38:23.411Z,5.33
2023-03-17T10:41:25.915Z,4.37
2023-03-17T10:44:41.932Z,5.93
2023-03-17T10:47:45.907Z,4.67
2023-03-17T10:50:49.290Z,4.10
2023-03-17T10:53:53.061Z,6.27
2023-03-17T10:57:06.076Z,5.67
2023-03-17T11:00:19.934Z,5.50
2023-03-17T11:03:27.908Z,6.63
2023-03-17T11:06:39.137Z,7.07
2023-03-17T11:09:41.063Z,8.50
2023-03-17T11:12:43.068Z,5.17
2023-03-17T11:15:52.427Z,7.70
2023-03-17T11:18:59.605Z,5.90
2023-03-17T11:22:15.705Z,6.23
2023-03-17T11:25:23.419Z,5.40
2023-03-17T11:28:30.949Z,6.17
2023-03-17T11:31:42.394Z,4.50
2023-03-17T11:34:58.902Z,5.87
2023-03-17T11:38:15.690Z,5.93
2023-03-17T11:41:34.947Z,7.23
2023-03-17T11:45:01.215Z,4.77
2023-03-17T11:48:13.659Z,10.30
2023-03-17T11:51:27.331Z,6.07
2023-03-17T11:54:43.409Z,5.97
2023-03-17T11:57:53.316Z,6.27
2023-03-17T12:00:58.306Z,6.27
2023-03-17T12:04:18.325Z,5.97
2023-03-17T12:07:46.715Z,6.73
2023-03-17T12:10:54.522Z,6.87
2023-03-17T12:14:01.562Z,5.47
2023-03-17T12:17:12.326Z,6.90
2023-03-17T12:20:19.920Z,8.20
2023-03-17T12:23:34.315Z,6.87
2023-03-17T12:26:47.677Z,6.43
2023-03-17T12:30:06.406Z,5.83
2023-03-17T12:33:21.267Z,5.80
2023-03-17T12:36:23.061Z,4.37
2023-03-17T12:39:31.344Z,4.93
2023-03-17T12:42:46.906Z,5.73
2023-03-17T12:46:11.499Z,4.87
2023-03-17T12:49:34.243Z,7.03
2023-03-17T12:52:54.591Z,4.80
2023-03-17T12:56:08.852Z,4.70
2023-03-17T12:59:17.195Z,8.53
2023-03-17T13:02:27.840Z,4.37
2023-03-17T13:05:32.642Z,6.87
2023-03-17T13:08:37.966Z,5.43
2023-03-17T13:11:42.266Z,9.13
2023-03-17T13:14:46.269Z,6.27
2023-03-17T13:17:48.189Z,4.63
2023-03-17T13:21:11.163Z,4.03
2023-03-17T13:24:15.303Z,5.63
2023-03-17T13:27:32.329Z,5.40
2023-03-17T13:30:36.687Z,4.20
2023-03-17T13:33:51.305Z,3.87
2023-03-17T13:37:14.588Z,4.57
2023-03-17T13:40:25.180Z,3.70
2023-03-17T13:43:56.717Z,3.73
2023-03-17T13:47:20.583Z,5.97
2023-03-17T13:50:25.440Z,5.47
2023-03-17T13:53:31.599Z,3.97
2023-03-17T13:56:41.901Z,4.27
2023-03-17T14:00:16.236Z,3.67
2023-03-17T14:03:19.369Z,5.27
2023-03-17T14:06:24.290Z,3.60
2023-03-17T14:09:39.793Z,5.47
2023-03-17T14:12:57.791Z,3.73
2023-03-17T14:16:04.618Z,6.83
2023-03-17T14:19:20.970Z,4.00
2023-03-17T14:22:24.759Z,3.73
2023-03-17T14:25:32.827Z,4.53
2023-03-17T14:28:35.420Z,4.67
2023-03-17T14:31:36.975Z,4.53
2023-03-17T14:34:48.035Z,4.93
2023-03-17T14:37:49.553Z,3.30
2023-03-17T14:41:01.745Z,2.80
2023-03-17T14:44:03.291Z,4.43
2023-03-17T14:47:12.589Z,3.07
2023-03-17T14:50:20.578Z,5.60
2023-03-17T14:53:24.185Z,3.97
2023-03-17T14:56:41.195Z,4.80
2023-03-17T14:59:54.755Z,4.60
2023-03-17T15:02:58.615Z,4.07
2023-03-17T15:06:20.235Z,3.10
2023-03-17T15:09:27.349Z,5.03
2023-03-17T15:12:29.838Z,3.90
2023-03-17T15:15:37.069Z,4.27
2023-03-17T15:18:38.554Z,2.40
2023-03-17T15:21:42.279Z,3.07
2023-03-17T15:24:44.054Z,3.50
2023-03-17T15:27:46.778Z,5.17
2023-03-17T15:30:51.400Z,3.47
2023-03-17T15:33:53.163Z,4.07
2023-03-17T15:36:55.557Z,4.30
2023-03-17T15:39:58.072Z,5.60
2023-03-17T15:43:00.474Z,6.93
2023-03-17T15:46:06.764Z,2.90
2023-03-17T15:49:12.173Z,2.73
2023-03-17T15:52:21.414Z,2.63
2023-03-17T15:55:25.243Z,3.37
2023-03-17T15:58:27.003Z,2.60
2023-03-17T16:01:28.693Z,2.77
2023-03-17T16:04:30.349Z,3.37
2023-03-17T16:07:33.343Z,5.73
2023-03-17T16:10:34.865Z,3.77
2023-03-17T16:13:36.279Z,3.30
2023-03-17T16:16:43.489Z,4.53
2023-03-17T16:19:45.211Z,3.93
2023-03-17T16:22:46.798Z,3.30
2023-03-17T16:25:48.621Z,4.57
2023-03-17T16:28:50.465Z,6.30
2023-03-17T16:31:51.946Z,2.90
2023-03-17T16:34:53.340Z,5.63
2023-03-17T16:37:55.479Z,4.10
2023-03-17T16:41:16.948Z,4.77
2023-03-17T16:44:20.897Z,3.50
2023-03-17T16:47:22.302Z,3.33
2023-03-17T16:50:26.463Z,3.67
2023-03-17T16:53:27.853Z,5.70
2023-03-17T16:56:29.853Z,3.17
2023-03-17T16:59:33.504Z,4.60
2023-03-17T17:02:35.092Z,6.03
2023-03-17T17:05:36.612Z,4.07
2023-03-17T17:08:38.013Z,5.07
2023-03-17T17:11:39.454Z,3.80
2023-03-17T17:14:41.425Z,4.23
2023-03-17T17:17:46.446Z,4.23
2023-03-17T17:20:48.920Z,4.60
2023-03-17T17:23:52.766Z,3.70
2023-03-17T17:26:54.462Z,2.63
2023-03-17T17:29:55.886Z,7.23
2023-03-17T17:32:59.235Z,4.93
2023-03-17T17:36:03.750Z,3.97
2023-03-17T17:39:06.670Z,5.97
2023-03-17T17:42:10.792Z,6.63
2023-03-17T17:45:13.866Z,6.13
2023-03-17T17:48:22.302Z,8.00
2023-03-17T17:51:23.748Z,9.97
2023-03-17T17:54:25.366Z,8.07
2023-03-17T17:57:27.995Z,11.80
2023-03-17T18:00:30.355Z,8.13
2023-03-17T18:03:32.281Z,8.43
2023-03-17T18:06:33.767Z,7.43
2023-03-17T18:09:35.584Z,6.90
2023-03-17T18:12:37.970Z,8.67
2023-03-17T18:15:39.634Z,9.27
2023-03-17T18:18:43.155Z,7.03
2023-03-17T18:21:46.021Z,7.67
2023-03-17T18:24:48.361Z,5.97
2023-03-17T18:27:49.949Z,7.70
2023-03-17T18:30:51.437Z,5.60
2023-03-17T18:33:57.746Z,5.63
2023-03-17T18:37:00.593Z,6.00
2023-03-17T18:40:14.249Z,6.67
2023-03-17T18:43:16.843Z,7.37
2023-03-17T18:46:18.387Z,9.63
2023-03-17T18:49:19.924Z,10.37
2023-03-17T18:52:21.863Z,8.80
2023-03-17T18:55:23.337Z,5.73
2023-03-17T18:58:25.296Z,8.27
2023-03-17T19:01:27.120Z,8.30
2023-03-17T19:04:28.536Z,8.03
2023-03-17T19:07:29.983Z,7.93
2023-03-17T19:10:31.638Z,14.63
2023-03-17T19:13:33.771Z,9.40
2023-03-17T19:16:35.586Z,11.13
2023-03-17T19:19:37.432Z,9.57
2023-03-17T19:22:40.126Z,11.60
2023-03-17T19:25:41.715Z,8.93
2023-03-17T19:28:43.309Z,6.97
2023-03-17T19:31:45.737Z,7.17
2023-03-17T19:34:48.842Z,8.27
2023-03-17T19:37:50.778Z,10.07
2023-03-17T19:40:52.945Z,10.83
2023-03-17T19:43:54.346Z,11.50
2023-03-17T19:46:55.779Z,11.77
2023-03-17T19:49:57.603Z,12.40
2023-03-17T19:52:59.021Z,20.77
2023-03-17T19:56:00.660Z,21.63
2023-03-17T19:59:02.184Z,28.00
2023-03-17T20:02:03.729Z,19.00
2023-03-17T20:05:06.501Z,20.73
2023-03-17T20:08:07.977Z,17.90
2023-03-17T20:11:11.457Z,26.13
2023-03-17T20:14:13.158Z,20.97
2023-03-17T20:17:15.277Z,18.93
2023-03-17T20:20:16.758Z,19.70
2023-03-17T20:23:18.788Z,16.00
2023-03-17T20:26:20.250Z,17.47
2023-03-17T20:29:21.653Z,16.43
2023-03-17T20:32:23.097Z,14.27
2023-03-17T20:35:27.261Z,16.73
2023-03-17T20:38:29.246Z,16.13
2023-03-17T20:41:30.977Z,18.07
2023-03-17T20:44:32.379Z,22.00
2023-03-17T20:47:33.804Z,16.53
2023-03-17T20:50:35.241Z,19.43
2023-03-17T20:53:36.689Z,18.10
2023-03-17T20:56:39.554Z,20.77
2023-03-17T20:59:41.910Z,18.03
2023-03-17T21:02:50.537Z,17.30
2023-03-17T21:05:53.327Z,17.40
2023-03-17T21:08:55.438Z,18.03
2023-03-17T21:11:56.890Z,17.80
2023-03-17T21:14:59.209Z,18.73
2023-03-17T21:18:00.703Z,17.13
2023-03-17T21:21:02.186Z,16.77
2023-03-17T21:24:05.417Z,16.83
2023-03-17T21:27:11.197Z,18.70
2023-03-17T21:30:14.396Z,20.23
2023-03-17T21:33:15.846Z,19.70
2023-03-17T21:36:17.624Z,15.63
2023-03-17T21:39:20.004Z,18.70
2023-03-17T21:42:21.491Z,19.27
2023-03-17T21:45:22.993Z,18.73
2023-03-17T21:48:24.482Z,16.77
2023-03-17T21:51:26.212Z,17.47
2023-03-17T21:54:28.406Z,18.27
2023-03-17T21:57:29.795Z,16.40
2023-03-17T22:00:42.684Z,20.63
2023-03-17T22:03:45.996Z,17.00
2023-03-17T22:06:47.428Z,18.37
2023-03-17T22:09:52.799Z,18.80
2023-03-17T22:12:54.191Z,17.77
2023-03-17T22:15:58.672Z,19.80
2023-03-17T22:19:00.271Z,16.60
2023-03-17T22:22:02.110Z,20.00
2023-03-17T22:25:06.093Z,15.50
2023-03-17T22:28:08.539Z,16.83
2023-03-17T22:31:12.228Z,12.97
2023-03-17T22:34:13.804Z,12.93
2023-03-17T22:37:15.199Z,15.67
2023-03-17T22:40:18.980Z,11.27
2023-03-17T22:43:20.396Z,10.10
2023-03-17T22:46:22.036Z,11.63
2023-03-17T22:49:23.797Z,11.40
2023-03-17T22:52:25.194Z,13.03
2023-03-17T22:55:26.578Z,14.00
2023-03-17T22:58:28.921Z,14.93
2023-03-17T23:01:31.602Z,11.47
2023-03-17T23:04:33.607Z,15.10
2023-03-17T23:07:49.465Z,12.80
2023-03-17T23:10:51.374Z,12.20
2023-03-17T23:13:53.634Z,11.73
2023-03-17T23:16:55.255Z,14.60
2023-03-17T23:19:56.781Z,12.93
2023-03-17T23:22:58.744Z,11.50
2023-03-17T23:26:00.361Z,10.67
2023-03-17T23:29:02.818Z,12.57
2023-03-17T23:32:04.528Z,11.47
2023-03-17T23:35:07.047Z,15.10
2023-03-17T23:38:08.647Z,14.27
2023-03-17T23:41:12.580Z,10.10
2023-03-17T23:44:14.292Z,12.47
2023-03-17T23:47:16.797Z,12.10
2023-03-17T23:50:19.396Z,11.70
2023-03-17T23:53:23.291Z,11.97
2023-03-17T23:56:24.861Z,12.17
2023-03-17T23:59:26.493Z,12.30
